Latest Weather Observations for Port Pirie Airport AWS***

IDS60801

Issued at 8:05 pm CST Tuesday 29 July 2014 (issued every 30 minutes, with the page automatically refreshed every 10 minutes)

About weather observations | Map of weather stations | Latest weather observations for SA | Other Formats
Station Details ID: 250006 Name: PORT PIRIE AERODROME AWS Lat: -33.23 Lon: 138.00 Height: 10.0 m
Data from the previous 72 hours. | See also: Recent months for locations in South Australia
Date/Time
CST
Temp
°C
App
Temp
°C
Dew
Point
Rel
Hum
%
Delta-T
°C
Wind Press
QNH
hPa
Press
MSL
hPa
Rain
since 9 am
mm
Dir
 
Spd
km/h
Gust
km/h
Spd
kts
Gust
kts
29/08:00pm 12.6 11.4 7.9 73 2.3 W 4 11 2 6 - - 0.0
29/07:30pm 12.2 10.5 7.5 73 2.3 WNW 6 9 3 5 - - 0.0
29/07:00pm 13.8 12.2 8.0 68 2.9 WNW 6 11 3 6 - - 0.0
29/06:30pm 14.6 13.5 8.3 66 3.2 W 4 9 2 5 - - 0.0
29/06:00pm 13.8 12.8 7.3 65 3.2 NE 2 4 1 2 - - 0.0
29/05:30pm 16.4 15.3 8.6 60 4.0 WNW 4 9 2 5 - - 0.0
29/05:00pm 18.6 16.8 9.4 55 4.8 NW 9 15 5 8 - - 0.0
29/04:30pm 19.7 17.9 9.3 51 5.5 NNW 9 17 5 9 - - 0.0
29/04:00pm 19.7 17.0 9.0 50 5.6 NNW 13 20 7 11 - - 0.0
29/03:30pm 20.2 17.2 9.2 49 5.8 NW 15 24 8 13 - - 0.0
29/03:00pm 19.9 16.1 8.9 49 5.8 NW 19 26 10 14 - - 0.0
29/02:30pm 20.5 17.2 9.4 49 5.9 NW 17 24 9 13 - - 0.0
29/02:00pm 19.7 16.4 9.6 52 5.4 NW 17 26 9 14 - - 0.0
29/01:30pm 19.9 16.7 9.8 52 5.4 NW 17 28 9 15 - - 0.0
29/01:00pm 18.7 15.8 9.5 55 4.9 NNW 15 26 8 14 - - 0.0
29/12:30pm 18.4 15.1 9.5 56 4.7 NNW 17 28 9 15 - - 0.0
29/12:00pm 17.9 14.9 9.3 57 4.5 NNW 15 24 8 13 - - 0.0
29/11:30am 17.3 14.3 9.2 59 4.2 NNW 15 26 8 14 - - 0.0
29/11:00am 15.9 12.4 8.9 63 3.6 NNW 17 24 9 13 - - 0.0
29/10:30am 15.6 11.7 8.6 63 3.6 NNW 19 28 10 15 - - 0.0
29/10:00am 14.9 10.9 8.4 65 3.3 NNW 19 30 10 16 - - 0.0
29/09:30am 14.4 10.1 7.9 65 3.2 NNW 20 32 11 17 - - 0.0
29/09:00am 14.2 10.1 7.9 66 3.1 NNW 19 26 10 14 - - 0.0
29/08:30am 12.9 10.8 8.2 73 2.3 N 9 17 5 9 - - 0.0
29/08:00am 12.1 9.8 7.4 73 2.3 N 9 19 5 10 - - 0.0
29/07:30am 11.5 9.1 7.0 74 2.1 N 9 15 5 8 - - 0.0
29/07:00am 11.4 8.9 6.7 73 2.2 N 9 15 5 8 - - 0.0
29/06:30am 10.9 8.9 7.0 77 1.9 N 7 11 4 6 - - 0.0
29/06:00am 10.6 8.4 6.2 74 2.0 NNW 7 11 4 6 - - 0.0
29/05:30am 11.9 9.0 6.4 69 2.6 N 11 19 6 10 - - 0.0
29/05:00am 12.2 9.6 6.0 66 2.9 N 9 17 5 9 - - 0.0
29/04:30am 11.9 8.9 5.8 66 2.8 N 11 17 6 9 - - 0.0
29/04:00am 11.6 8.3 6.5 71 2.4 N 13 17 7 9 - - 0.0
29/03:30am 12.6 9.8 6.9 68 2.7 N 11 17 6 9 - - 0.0
29/03:00am 11.7 9.0 7.4 75 2.1 N 11 15 6 8 - - 0.0
29/02:30am 12.4 10.2 7.9 74 2.2 N 9 15 5 8 - - 0.0
29/02:00am 12.4 10.2 7.9 74 2.2 N 9 13 5 7 - - 0.0
29/01:30am 11.5 9.3 7.8 78 1.8 N 9 15 5 8 - - 0.0
29/01:00am 12.2 10.6 8.7 79 1.7 N 7 11 4 6 - - 0.0
29/12:30am 12.7 10.7 8.6 76 2.0 N 9 15 5 8 - - 0.0
29/12:00am 12.7 11.0 8.4 75 2.1 N 7 13 4 7 - - 0.0
 
Date/Time
CST
Temp
°C
App
Temp
°C
Dew
Point
Rel
Hum
%
Delta-T
°C
Wind Press
QNH
hPa
Press
MSL
hPa
Rain
since 9 am
mm
Dir
 
Spd
km/h
Gust
km/h
Spd
kts
Gust
kts
28/11:30pm 12.3 10.6 8.4 77 1.9 N 7 11 4 6 - - 0.0
28/11:00pm 11.5 10.2 7.6 77 1.9 N 4 6 2 3 - - 0.0
28/10:30pm 9.9 8.3 6.4 79 1.6 N 4 6 2 3 - - 0.0
28/10:00pm 10.6 9.2 7.1 79 1.7 N 4 6 2 3 - - 0.0
28/09:30pm 11.2 10.1 6.9 75 2.0 NNW 2 4 1 2 - - 0.0
28/09:00pm 11.8 10.9 7.9 77 1.9 W 2 4 1 2 - - 0.0
28/08:30pm 12.1 11.3 8.0 76 2.0 NE 2 2 1 1 - - 0.0
28/08:00pm 11.7 11.3 8.2 79 1.7 CALM 0 2 0 1 - - 0.0
28/07:30pm 11.5 10.4 8.4 81 1.5 NE 4 4 2 2 - - 0.0
28/07:00pm 11.5 10.0 8.5 82 1.5 ENE 6 7 3 4 - - 0.0
28/06:30pm 12.4 11.3 8.5 77 1.9 SE 4 6 2 3 - - 0.0
28/06:00pm 12.9 11.4 8.4 74 2.2 E 6 6 3 3 - - 0.0
28/05:30pm 13.4 11.5 7.6 68 2.8 ESE 7 7 4 4 - - 0.0
28/05:00pm 14.9 13.3 8.2 64 3.4 S 6 7 3 4 - - 0.0
28/04:30pm 16.4 13.4 7.9 57 4.3 SSW 13 19 7 10 - - 0.0
28/04:00pm 19.1 17.4 5.9 42 6.5 NNW 4 6 2 3 - - 0.0
28/03:30pm 19.6 17.3 4.9 38 7.1 NNW 6 11 3 6 - - 0.0
28/03:00pm 20.0 16.2 4.1 35 7.6 N 13 22 7 12 - - 0.0
28/02:30pm 20.5 16.7 4.1 34 7.9 N 13 22 7 12 - - 0.0
28/02:00pm 19.0 15.2 4.0 37 7.1 N 13 24 7 13 - - 0.0
28/01:30pm 19.5 15.3 4.0 36 7.4 N 15 22 8 12 - - 0.0
28/01:00pm 17.6 13.4 3.9 40 6.4 N 15 24 8 13 - - 0.0
28/12:30pm 17.8 13.3 4.4 41 6.4 N 17 26 9 14 - - 0.0
28/12:00pm 16.7 12.1 3.7 42 6.0 N 17 32 9 17 - - 0.0
28/11:30am 17.1 12.1 3.4 40 6.3 N 19 33 10 18 - - 0.0
28/11:00am 16.4 11.1 2.8 40 6.2 N 20 30 11 16 - - 0.0
28/10:30am 15.9 10.6 3.0 42 5.9 N 20 35 11 19 - - 0.0
28/10:00am 14.9 10.4 4.0 48 5.0 N 17 28 9 15 - - 0.0
28/09:30am 14.6 10.0 3.7 48 5.0 N 17 30 9 16 - - 0.0
28/09:00am 14.2 9.6 3.9 50 4.7 N 17 30 9 16 - - 0.0
28/08:30am 14.4 10.3 4.4 51 4.6 N 15 26 8 14 - - 0.0
28/08:00am 13.8 10.5 4.7 54 4.2 N 11 20 6 11 - - 0.0
28/07:30am 12.6 8.8 3.8 55 4.0 N 13 24 7 13 - - 0.0
28/07:00am 12.7 8.7 3.1 52 4.2 N 13 26 7 14 - - 0.0
28/06:30am 13.2 8.9 3.3 51 4.4 N 15 28 8 15 - - 0.0
28/06:00am 13.7 9.0 3.2 49 4.7 N 17 26 9 14 - - 0.0
28/05:30am 13.5 7.9 3.3 50 4.6 N 22 35 12 19 - - 0.0
28/05:00am 13.5 7.8 3.0 49 4.7 N 22 32 12 17 - - 0.0
28/04:30am 12.9 7.9 3.6 53 4.2 N 19 30 10 16 - - 0.0
28/04:00am 12.5 7.6 4.0 56 3.8 N 19 26 10 14 - - 0.0
28/03:30am 12.3 7.9 4.5 59 3.5 N 17 28 9 15 - - 0.0
28/03:00am 12.7 8.4 5.4 61 3.4 N 17 26 9 14 - - 0.0
28/02:30am 13.6 9.4 5.5 58 3.8 N 17 28 9 15 - - 0.0
28/02:00am 13.1 9.1 4.8 57 3.8 N 15 20 8 11 - - 0.0
28/01:30am 12.7 9.7 4.2 56 3.9 N 9 15 5 8 - - 0.0
28/01:00am 11.8 9.4 5.4 65 3.0 N 7 13 4 7 - - 0.0
28/12:30am 11.9 9.0 6.6 70 2.5 NNW 11 17 6 9 - - 0.0
28/12:00am 12.3 9.8 6.4 67 2.8 NNW 9 15 5 8 - - 0.0
 
Date/Time
CST
Temp
°C
App
Temp
°C
Dew
Point
Rel
Hum
%
Delta-T
°C
Wind Press
QNH
hPa
Press
MSL
hPa
Rain
since 9 am
mm
Dir
 
Spd
km/h
Gust
km/h
Spd
kts
Gust
kts
27/11:30pm 12.4 9.4 6.2 66 2.9 N 11 17 6 9 - - 0.0
27/11:00pm 12.7 9.7 5.8 63 3.2 N 11 17 6 9 - - 0.0
27/10:30pm 12.5 9.6 6.3 66 2.9 N 11 15 6 8 - - 0.0
27/10:00pm 14.1 11.1 6.0 58 3.9 N 11 19 6 10 - - 0.0
27/09:30pm 14.8 12.1 5.6 54 4.4 N 9 19 5 10 - - 0.0
27/09:00pm 15.4 12.1 4.5 48 5.1 N 11 19 6 10 - - 0.0
27/08:30pm 14.5 12.2 5.0 53 4.4 N 6 11 3 6 - - 0.0
27/08:00pm 13.8 11.4 5.2 56 4.0 N 7 11 4 6 - - 0.0
27/07:30pm 12.6 9.7 4.8 59 3.6 NNE 9 13 5 7 - - 0.0
27/07:00pm 12.1 9.8 5.5 64 3.1 NE 7 9 4 5 - - 0.0
27/06:30pm 12.1 9.5 4.3 59 3.5 E 7 9 4 5 - - 0.0
27/06:00pm 16.3 13.1 5.0 47 5.4 N 11 17 6 9 - - 0.0
27/05:30pm 17.4 13.9 5.4 45 5.8 N 13 20 7 11 - - 0.0
27/05:00pm 18.5 14.2 5.4 42 6.4 N 17 28 9 15 - - 0.0
27/04:30pm 19.6 15.2 4.9 38 7.1 N 17 28 9 15 - - 0.0
27/04:00pm 19.8 15.1 5.1 38 7.2 N 19 32 10 17 - - 0.0
27/03:30pm 20.0 15.6 4.9 37 7.3 N 17 35 9 19 - - 0.0
27/03:00pm 19.6 14.4 5.3 39 7.0 N 22 37 12 20 - - 0.0
27/02:30pm 19.7 15.1 6.4 42 6.7 N 20 37 11 20 - - 0.0
27/02:00pm 19.2 14.6 6.7 44 6.3 N 20 37 11 20 - - 0.0
27/01:30pm 18.5 12.9 5.4 42 6.4 N 24 43 13 23 - - 0.0
27/01:00pm 18.1 12.6 5.7 44 6.0 N 24 43 13 23 - - 0.0
27/12:30pm 17.8 12.3 6.0 46 5.8 N 24 37 13 20 - - 0.0
27/12:00pm 17.3 11.6 6.5 49 5.3 N 26 41 14 22 - - 0.0
27/11:30am 16.3 11.7 6.7 53 4.7 N 20 33 11 18 - - 0.0
27/11:00am 15.3 10.8 6.1 54 4.4 N 19 35 10 19 - - 0.0
27/10:30am 15.0 11.1 7.1 59 3.9 N 17 32 9 17 - - 0.0
27/10:00am 14.6 11.0 6.7 59 3.8 NNW 15 22 8 12 - - 0.0
27/09:30am 13.7 10.5 7.0 64 3.3 N 13 22 7 12 - - 0.0
27/09:00am 12.3 9.0 6.6 68 2.7 N 13 24 7 13 - - 0.0
27/08:30am 11.1 7.7 5.8 70 2.5 N 13 26 7 14 - - 0.0
27/08:00am 10.5 7.1 5.7 72 2.2 N 13 24 7 13 - - 0.0
27/07:30am 5.6 2.7 4.6 93 0.4 NE 9 11 5 6 - - 0.0
27/07:00am 4.3 1.5 3.4 94 0.4 NE 7 9 4 5 - - 0.0
27/06:30am 2.7 -0.5 0.9 88 0.7 NE 7 9 4 5 - - 0.0
27/06:00am 6.1 4.2 4.7 91 0.6 N 4 7 2 4 - - 0.0
27/05:30am 3.3 1.3 2.4 94 0.4 NE 2 4 1 2 - - 0.0
27/05:00am 3.3 0.5 2.3 93 0.4 E 6 7 3 4 - - 0.0
27/04:30am 3.1 0.7 1.9 92 0.5 ENE 4 4 2 2 - - 0.0
27/04:00am 3.4 1.0 2.2 92 0.5 NNE 4 6 2 3 - - 0.0
27/03:30am 3.1 0.0 1.3 88 0.7 ENE 7 7 4 4 - - 0.0
27/03:00am 4.7 2.0 2.9 88 0.7 NE 6 7 3 4 - - 0.0
27/02:30am 7.0 4.8 5.2 88 0.8 N 6 7 3 4 - - 0.0
27/02:00am 3.9 1.9 2.3 89 0.6 WNW 2 4 1 2 - - 0.0
27/01:30am 4.1 2.1 2.3 88 0.7 N 2 6 1 3 - - 0.0
27/01:00am 4.5 2.6 2.7 88 0.7 WSW 2 2 1 1 - - 0.0
27/12:30am 4.8 3.0 3.6 92 0.5 NE 2 2 1 1 - - 0.0
27/12:00am 4.5 2.2 3.0 90 0.6 ENE 4 6 2 3 - - 0.0
 
Date/Time
CST
Temp
°C
App
Temp
°C
Dew
Point
Rel
Hum
%
Delta-T
°C
Wind Press
QNH
hPa
Press
MSL
hPa
Rain
since 9 am
mm
Dir
 
Spd
km/h
Gust
km/h
Spd
kts
Gust
kts
26/11:30pm 5.8 3.9 4.8 93 0.4 NE 4 4 2 2 - - 0.0
26/11:00pm 4.4 2.1 2.8 89 0.6 ENE 4 4 2 2 - - 0.0
26/10:30pm 5.5 3.0 3.7 88 0.8 E 6 6 3 3 - - 0.0
26/10:00pm 6.1 4.1 4.4 89 0.7 E 4 4 2 2 - - 0.0
26/09:30pm 6.2 4.2 4.5 89 0.7 E 4 4 2 2 - - 0.0
26/09:00pm 6.0 3.9 4.0 87 0.8 E 4 4 2 2 - - 0.0
26/08:30pm 7.2 5.7 5.0 86 1.0 ESE 2 4 1 2 - - 0.0

Other Formats:

Comma delimited format used in spreadsheet applications
http://www.bom.gov.au/fwo/IDS60801/IDS60801.99001.axf

JavaScript Object Notation format (JSON) in row-major order
http://www.bom.gov.au/fwo/IDS60801/IDS60801.99001.json